Time;durP1;ratioP1;P1;durP2;ratioP2;P2;SDS_P1;SDS_P2;PMS_P1;PMS_P2;Temp;Humidity;BMP_temperature;BMP_pressure;BME280_temperature;BME280_humidity;BME280_pressure;Samples;Min_cycle;Max_cycle;Signal;HPM_P1;HPM_P2
2023/04/19 00:00:08;;;;;;;;;;;;;;;19.49;54.60;98674.38;2082496;28;23291;-53
2023/04/19 00:01:08;;;;;;;;;;;;;;;19.49;54.77;98670.88;2078300;28;19929;-54
2023/04/19 00:02:10;;;;;;;;;;;;;;;19.47;54.79;98672.94;2079300;28;20478;-49
2023/04/19 00:03:11;;;;;;;;;;;;;;;19.47;54.61;98675.63;2077775;28;19972;-51
2023/04/19 00:04:13;;;;;;;;;;;;;;;19.47;54.58;98676.44;2079218;28;20275;-51
2023/04/19 00:05:14;;;;;;;;;;;;;;;19.46;54.43;98677.50;2079105;28;19925;-53
2023/04/19 00:06:16;;;;;;;;;;;;;;;19.46;54.61;98677.50;2083124;28;20019;-49
2023/04/19 00:07:17;;;;;;;;;;;;;;;19.44;54.75;98674.19;2078331;28;19940;-52
2023/04/19 00:08:18;;;;;;;;;;;;;;;19.45;54.66;98669.66;2079376;28;19956;-54
2023/04/19 00:09:19;;;;;;;;;;;;;;;19.43;54.63;98670.66;2081988;28;19937;-49
2023/04/19 00:10:20;;;;;;;;;;;;;;;19.43;54.35;98675.22;2076623;28;19932;-48
2023/04/19 00:11:21;;;;;;;;;;;;;;;19.40;54.58;98668.41;2078809;28;20002;-51
2023/04/19 00:12:22;;;;;;;;;;;;;;;19.42;54.65;98677.09;2077278;28;19928;-52
2023/04/19 00:13:23;;;;;;;;;;;;;;;19.41;54.65;98670.03;2076146;28;20544;-51
2023/04/19 00:14:25;;;;;;;;;;;;;;;19.42;54.29;98674.41;2083545;28;19929;-49
2023/04/19 00:15:26;;;;;;;;;;;;;;;19.41;54.31;98674.59;2077863;28;19986;-49
2023/04/19 00:16:27;;;;;;;;;;;;;;;19.40;54.51;98672.97;2079134;28;19932;-46
2023/04/19 00:17:28;;;;;;;;;;;;;;;19.38;54.56;98670.47;2077761;28;20009;-51
2023/04/19 00:18:29;;;;;;;;;;;;;;;19.39;54.76;98674.00;2079136;28;21000;-46
2023/04/19 00:19:30;;;;;;;;;;;;;;;19.38;54.68;98675.03;2078709;28;20001;-50
2023/04/19 00:20:31;;;;;;;;;;;;;;;19.37;54.84;98668.81;2080240;28;19940;-53
2023/04/19 00:21:32;;;;;;;;;;;;;;;19.38;54.57;98667.78;2079811;28;19933;-54
2023/04/19 00:22:33;;;;;;;;;;;;;;;19.39;54.68;98666.75;2077209;28;20318;-50
2023/04/19 00:23:34;;;;;;;;;;;;;;;19.37;54.57;98663.44;2076130;28;23094;-50
2023/04/19 00:24:35;;;;;;;;;;;;;;;19.36;54.88;98661.78;2079730;28;19932;-51
2023/04/19 00:25:36;;;;;;;;;;;;;;;19.36;54.76;98661.78;2078334;28;19929;-52
2023/04/19 00:26:37;;;;;;;;;;;;;;;19.36;54.53;98660.94;2080178;28;19933;-47
2023/04/19 00:27:38;;;;;;;;;;;;;;;19.35;54.71;98653.91;2077299;28;20070;-48
2023/04/19 00:28:39;;;;;;;;;;;;;;;19.34;54.37;98661.16;2078251;28;19933;-48
2023/04/19 00:29:41;;;;;;;;;;;;;;;19.33;54.88;98661.38;2082638;28;19981;-51
2023/04/19 00:30:42;;;;;;;;;;;;;;;19.33;54.51;98656.81;2078772;28;19928;-52
2023/04/19 00:31:43;;;;;;;;;;;;;;;19.33;54.84;98662.19;2079885;28;19998;-54
2023/04/19 00:32:44;;;;;;;;;;;;;;;19.34;54.62;98657.66;2076913;28;19983;-48
2023/04/19 00:33:45;;;;;;;;;;;;;;;19.32;54.65;98665.91;2077726;28;20505;-51
2023/04/19 00:34:46;;;;;;;;;;;;;;;19.32;55.01;98663.22;2079598;28;19928;-47
2023/04/19 00:35:47;;;;;;;;;;;;;;;19.31;54.68;98658.06;2084203;28;19928;-46
2023/04/19 00:36:48;;;;;;;;;;;;;;;19.29;54.84;98652.88;2087351;28;19993;-51
2023/04/19 00:37:48;;;;;;;;;;;;;;;19.30;54.82;98662.59;2079214;28;19932;-50
2023/04/19 00:38:50;;;;;;;;;;;;;;;19.29;54.79;98660.97;2079597;28;19978;-50
2023/04/19 00:39:50;;;;;;;;;;;;;;;19.29;54.87;98663.66;2080965;28;19932;-53
2023/04/19 00:40:52;;;;;;;;;;;;;;;19.27;54.61;98657.63;2079412;28;20317;-50
2023/04/19 00:41:52;;;;;;;;;;;;;;;19.27;54.54;98660.34;2079712;28;20608;-51
2023/04/19 00:42:54;;;;;;;;;;;;;;;19.28;54.61;98662.00;2077875;28;20014;-53
2023/04/19 00:43:54;;;;;;;;;;;;;;;19.26;54.79;98660.56;2079634;27;19936;-51
2023/04/19 00:44:57;;;;;;;;;;;;;;;19.27;54.84;98657.63;2078114;28;19932;-48
2023/04/19 00:45:58;;;;;;;;;;;;;;;19.27;54.38;98657.63;2081075;28;19929;-46
2023/04/19 00:46:59;;;;;;;;;;;;;;;19.27;54.60;98654.94;2078210;28;20445;-50
2023/04/19 00:48:00;;;;;;;;;;;;;;;19.25;54.97;98653.50;2078252;28;20618;-52
2023/04/19 00:49:01;;;;;;;;;;;;;;;19.24;54.84;98654.53;2078528;28;19994;-48
2023/04/19 00:50:02;;;;;;;;;;;;;;;19.23;54.77;98661.78;2081096;28;21133;-51
2023/04/19 00:51:04;;;;;;;;;;;;;;;19.23;54.64;98659.09;2078903;28;20019;-53
2023/04/19 00:52:05;;;;;;;;;;;;;;;19.24;54.56;98652.69;2080707;28;20002;-47
2023/04/19 00:53:07;;;;;;;;;;;;;;;19.23;54.30;98655.59;2079493;28;20411;-52
2023/04/19 00:54:08;;;;;;;;;;;;;;;19.22;54.84;98652.06;2084163;28;19955;-48
2023/04/19 00:55:10;;;;;;;;;;;;;;;19.21;54.85;98653.09;2081484;28;20402;-48
2023/04/19 00:56:10;;;;;;;;;;;;;;;19.18;54.81;98654.34;2076888;28;21167;-49
2023/04/19 00:57:12;;;;;;;;;;;;;;;19.18;54.68;98650.81;2079865;28;20018;-47
2023/04/19 00:58:12;;;;;;;;;;;;;;;19.19;54.92;98649.78;2078227;28;21067;-54
2023/04/19 00:59:15;;;;;;;;;;;;;;;19.17;54.77;98651.88;2078941;27;19982;-46
2023/04/19 01:00:17;;;;;;;;;;;;;;;19.18;54.69;98648.13;2081985;28;19928;-53
2023/04/19 01:01:18;;;;;;;;;;;;;;;19.18;54.64;98642.75;2081355;28;20019;-52
2023/04/19 01:02:20;;;;;;;;;;;;;;;19.18;54.63;98648.13;2079311;28;19928;-51
2023/04/19 01:03:21;;;;;;;;;;;;;;;19.18;54.85;98645.44;2074678;28;19928;-54
2023/04/19 01:04:22;;;;;;;;;;;;;;;19.15;54.78;98656.63;2078834;28;19940;-53
2023/04/19 01:05:23;;;;;;;;;;;;;;;19.14;54.63;98646.91;2079507;28;19925;-48
2023/04/19 01:06:26;;;;;;;;;;;;;;;19.16;54.66;98652.88;2080894;28;19933;-49
2023/04/19 01:07:28;;;;;;;;;;;;;;;19.14;54.60;98654.97;2078986;28;20023;-49
2023/04/19 01:08:28;;;;;;;;;;;;;;;19.13;54.98;98656.00;2078468;28;19933;-49
2023/04/19 01:09:30;;;;;;;;;;;;;;;19.13;54.56;98650.63;2080558;28;19929;-48
2023/04/19 01:10:30;;;;;;;;;;;;;;;19.13;54.85;98650.63;2078097;28;19928;-50
2023/04/19 01:11:31;;;;;;;;;;;;;;;19.12;54.66;98646.28;2080233;28;19932;-53
2023/04/19 01:12:32;;;;;;;;;;;;;;;19.11;54.92;98650.84;2076799;28;19982;-52
2023/04/19 01:13:34;;;;;;;;;;;;;;;19.12;54.81;98646.28;2079178;28;20002;-50
2023/04/19 01:14:34;;;;;;;;;;;;;;;19.11;54.62;98645.47;2078426;28;19929;-52
2023/04/19 01:15:37;;;;;;;;;;;;;;;19.09;54.72;98644.00;2079075;28;19936;-46
2023/04/19 01:16:38;;;;;;;;;;;;;;;19.11;54.86;98648.16;2083376;28;19933;-50
2023/04/19 01:17:39;;;;;;;;;;;;;;;19.10;54.58;98646.47;2060302;28;19986;-52
2023/04/19 01:18:40;;;;;;;;;;;;;;;19.10;55.01;98645.66;2078960;28;21098;-51
2023/04/19 01:19:41;;;;;;;;;;;;;;;19.09;54.77;98644.00;2077783;28;19940;-50
2023/04/19 01:20:42;;;;;;;;;;;;;;;19.10;54.68;98642.97;2078345;28;20415;-48
2023/04/19 01:21:45;;;;;;;;;;;;;;;19.08;54.55;98640.47;2076601;28;19929;-52
2023/04/19 01:22:47;;;;;;;;;;;;;;;19.07;55.03;98648.75;2077349;28;22608;-52
2023/04/19 01:23:48;;;;;;;;;;;;;;;19.08;54.85;98642.34;2076331;28;20387;-51
2023/04/19 01:24:48;;;;;;;;;;;;;;;19.07;54.72;98646.88;2079158;28;19936;-53
2023/04/19 01:25:50;;;;;;;;;;;;;;;19.06;55.27;98644.44;2071719;28;19929;-53
2023/04/19 01:26:50;;;;;;;;;;;;;;;19.06;54.72;98641.75;2068874;28;20502;-50
2023/04/19 01:27:52;;;;;;;;;;;;;;;19.05;54.97;98646.25;2069112;28;19940;-53
2023/04/19 01:28:52;;;;;;;;;;;;;;;19.05;54.62;98642.75;2071286;28;19964;-50
2023/04/19 01:29:54;;;;;;;;;;;;;;;19.05;54.78;98643.56;2068370;28;19925;-49
2023/04/19 01:30:54;;;;;;;;;;;;;;;19.05;54.83;98640.06;2069427;28;19974;-50
2023/04/19 01:31:56;;;;;;;;;;;;;;;19.04;54.75;98641.94;2076342;28;19978;-46
2023/04/19 01:32:56;;;;;;;;;;;;;;;19.04;55.11;98633.03;2068727;28;20025;-54
2023/04/19 01:33:57;;;;;;;;;;;;;;;19.02;54.94;98640.47;2069129;28;19982;-49
2023/04/19 01:34:58;;;;;;;;;;;;;;;19.01;55.23;98644.22;2067944;28;20544;-46
2023/04/19 01:35:59;;;;;;;;;;;;;;;19.01;54.67;98642.34;2069310;28;19929;-53
2023/04/19 01:37:00;;;;;;;;;;;;;;;19.01;54.66;98634.28;2070251;28;20395;-50
2023/04/19 01:38:04;;;;;;;;;;;;;;;19.02;54.78;98630.53;2069981;28;19937;-52
2023/04/19 01:39:04;;;;;;;;;;;;;;;19.00;54.86;98638.00;2070000;28;19928;-49
2023/04/19 01:40:07;;;;;;;;;;;;;;;18.99;54.81;98628.28;2073918;28;20450;-52
2023/04/19 01:41:07;;;;;;;;;;;;;;;19.01;54.63;98631.59;2071685;28;19932;-50
2023/04/19 01:42:09;;;;;;;;;;;;;;;18.98;55.21;98635.50;2071166;28;20014;-54
2023/04/19 01:43:11;;;;;;;;;;;;;;;18.99;54.90;98630.97;2068073;28;19928;-51
2023/04/19 01:44:13;;;;;;;;;;;;;;;18.99;54.87;98633.66;2073785;28;20024;-54
2023/04/19 01:45:13;;;;;;;;;;;;;;;18.99;54.88;98630.97;2070220;28;19937;-47
2023/04/19 01:46:15;;;;;;;;;;;;;;;18.97;54.90;98631.19;2071605;28;19979;-53
2023/04/19 01:47:15;;;;;;;;;;;;;;;18.98;54.99;98630.13;2074620;28;19987;-48
2023/04/19 01:48:17;;;;;;;;;;;;;;;18.97;54.85;98633.88;2067710;28;19933;-49
2023/04/19 01:49:17;;;;;;;;;;;;;;;18.98;54.42;98630.13;2068102;28;20441;-53
2023/04/19 01:50:18;;;;;;;;;;;;;;;18.98;55.25;98632.00;2070598;28;19983;-48
2023/04/19 01:51:20;;;;;;;;;;;;;;;18.97;54.80;98635.72;2069861;28;20470;-53
2023/04/19 01:52:22;;;;;;;;;;;;;;;18.96;54.90;98632.19;2069257;28;19974;-53
2023/04/19 01:53:23;;;;;;;;;;;;;;;18.96;54.89;98634.88;2068907;28;20026;-52
2023/04/19 01:54:25;;;;;;;;;;;;;;;18.95;54.84;98630.56;2069445;28;20383;-51
2023/04/19 01:55:26;;;;;;;;;;;;;;;18.96;54.90;98626.81;2071283;28;19941;-46
2023/04/19 01:56:27;;;;;;;;;;;;;;;18.96;54.82;98634.06;2070584;28;19937;-54
2023/04/19 01:57:28;;;;;;;;;;;;;;;18.94;54.67;98626.22;2068255;28;19933;-53
2023/04/19 01:58:29;;;;;;;;;;;;;;;18.94;54.98;98630.75;2070569;28;20006;-49
2023/04/19 01:59:30;;;;;;;;;;;;;;;18.93;55.12;98632.63;2072199;28;19932;-50
2023/04/19 02:00:31;;;;;;;;;;;;;;;18.92;54.73;98622.09;2072262;28;19925;-53
2023/04/19 02:01:31;;;;;;;;;;;;;;;18.93;55.07;98634.47;2070581;28;19995;-53
2023/04/19 02:02:33;;;;;;;;;;;;;;;18.92;54.79;98625.59;2073739;28;19929;-52
2023/04/19 02:03:33;;;;;;;;;;;;;;;18.92;54.95;98636.34;2077894;28;19971;-48
2023/04/19 02:04:35;;;;;;;;;;;;;;;18.93;54.47;98638.00;2077169;28;20413;-47
2023/04/19 02:05:37;;;;;;;;;;;;;;;18.93;54.49;98640.69;2069563;28;19933;-51
2023/04/19 02:06:39;;;;;;;;;;;;;;;18.92;54.70;98625.59;2070742;28;19964;-48
2023/04/19 02:07:39;;;;;;;;;;;;;;;18.90;54.89;98632.22;2070568;28;19925;-52
2023/04/19 02:08:42;;;;;;;;;;;;;;;18.91;55.08;98631.16;2067667;28;20021;-51
2023/04/19 02:09:43;;;;;;;;;;;;;;;18.90;54.71;98635.72;2069250;28;20497;-49
2023/04/19 02:10:44;;;;;;;;;;;;;;;18.90;54.88;98629.53;2074944;28;19991;-51
2023/04/19 02:11:45;;;;;;;;;;;;;;;18.90;54.88;98641.09;2077628;28;19940;-48
2023/04/19 02:12:46;;;;;;;;;;;;;;;18.89;55.16;98639.44;2068001;28;20391;-49
2023/04/19 02:13:47;;;;;;;;;;;;;;;18.90;54.92;98634.88;2069559;28;19929;-49
2023/04/19 02:14:48;;;;;;;;;;;;;;;18.89;54.88;98633.25;2066706;28;20019;-52
2023/04/19 02:15:49;;;;;;;;;;;;;;;18.88;54.62;98637.78;2069736;28;19929;-50
2023/04/19 02:16:50;;;;;;;;;;;;;;;18.88;54.95;98637.78;2071267;28;19925;-50
2023/04/19 02:17:51;;;;;;;;;;;;;;;18.88;54.69;98636.94;2072946;28;20470;-50
2023/04/19 02:18:53;;;;;;;;;;;;;;;18.88;55.04;98640.47;2079362;28;19970;-54
2023/04/19 02:19:53;;;;;;;;;;;;;;;18.86;55.05;98633.63;2078973;28;19929;-49
2023/04/19 02:20:55;;;;;;;;;;;;;;;18.87;54.74;98638.81;2077497;28;20020;-53
2023/04/19 02:21:56;;;;;;;;;;;;;;;18.86;54.93;98645.22;2079094;28;19973;-48
2023/04/19 02:22:57;;;;;;;;;;;;;;;18.87;54.99;98646.88;2078805;28;20479;-50
2023/04/19 02:24:00;;;;;;;;;;;;;;;18.85;55.01;98646.25;2078679;28;19978;-52
2023/04/19 02:25:01;;;;;;;;;;;;;;;18.85;55.17;98642.75;2078669;28;19928;-49
2023/04/19 02:26:02;;;;;;;;;;;;;;;18.84;54.92;98641.91;2077241;28;20016;-50
2023/04/19 02:27:03;;;;;;;;;;;;;;;18.84;54.55;98647.28;2078874;28;19936;-52
2023/04/19 02:28:05;;;;;;;;;;;;;;;18.84;54.80;98641.91;2077669;28;19934;-54
2023/04/19 02:29:05;;;;;;;;;;;;;;;18.84;54.94;98641.91;2077135;28;19989;-49
2023/04/19 02:30:07;;;;;;;;;;;;;;;18.84;54.90;98639.22;2073697;28;19964;-51
2023/04/19 02:31:08;;;;;;;;;;;;;;;18.84;54.76;98638.41;2076769;28;20520;-54
2023/04/19 02:32:11;;;;;;;;;;;;;;;18.84;54.58;98641.09;2080446;28;19935;-51
2023/04/19 02:33:12;;;;;;;;;;;;;;;18.83;55.14;98636.72;2077105;28;19977;-52
2023/04/19 02:34:13;;;;;;;;;;;;;;;18.83;54.63;98634.03;2076781;28;19983;-47
2023/04/19 02:35:14;;;;;;;;;;;;;;;18.81;55.00;98630.75;2078191;28;19986;-47
2023/04/19 02:36:15;;;;;;;;;;;;;;;18.82;54.70;98638.59;2084471;28;19932;-50
2023/04/19 02:37:17;;;;;;;;;;;;;;;18.82;54.72;98637.78;2087072;28;19974;-48
2023/04/19 02:38:18;;;;;;;;;;;;;;;18.81;54.95;98628.06;2081321;28;19954;-54
2023/04/19 02:39:20;;;;;;;;;;;;;;;18.78;55.03;98632.00;2079882;28;19929;-49
2023/04/19 02:40:22;;;;;;;;;;;;;;;18.78;54.72;98631.13;2077996;28;20344;-49
2023/04/19 02:41:23;;;;;;;;;;;;;;;18.80;54.98;98635.28;2077385;28;19932;-49
2023/04/19 02:42:24;;;;;;;;;;;;;;;18.80;55.13;98626.41;2075456;28;20343;-53
2023/04/19 02:43:25;;;;;;;;;;;;;;;18.77;54.81;98630.31;2078567;28;19928;-49
2023/04/19 02:44:26;;;;;;;;;;;;;;;18.77;54.62;98630.31;2076411;28;19935;-54
2023/04/19 02:45:27;;;;;;;;;;;;;;;18.77;54.99;98629.50;2076843;28;19928;-50
2023/04/19 02:46:28;;;;;;;;;;;;;;;18.74;55.15;98628.88;2077329;28;19986;-49
2023/04/19 02:47:29;;;;;;;;;;;;;;;18.78;55.05;98631.13;2082123;28;19962;-48
2023/04/19 02:48:30;;;;;;;;;;;;;;;18.77;54.84;98633.00;2080936;28;19940;-47
2023/04/19 02:49:31;;;;;;;;;;;;;;;18.77;54.92;98629.50;2078965;28;20462;-48
2023/04/19 02:50:33;;;;;;;;;;;;;;;18.76;54.85;98628.69;2077199;28;19955;-50
2023/04/19 02:51:33;;;;;;;;;;;;;;;18.77;54.63;98626.81;2077292;28;20908;-49
2023/04/19 02:52:35;;;;;;;;;;;;;;;18.75;54.80;98627.03;2080846;28;19928;-50
2023/04/19 02:53:35;;;;;;;;;;;;;;;18.74;55.03;98630.72;2079687;28;20696;-52
2023/04/19 02:54:38;;;;;;;;;;;;;;;18.74;54.87;98630.72;2083884;28;20043;-53
2023/04/19 02:55:38;;;;;;;;;;;;;;;18.75;54.77;98633.22;2086470;28;19978;-54
2023/04/19 02:56:40;;;;;;;;;;;;;;;18.74;55.00;98630.72;2088264;28;19970;-52
2023/04/19 02:57:40;;;;;;;;;;;;;;;18.73;55.13;98632.56;2089462;28;19981;-52
2023/04/19 02:58:42;;;;;;;;;;;;;;;18.76;54.72;98634.06;2080593;28;19933;-51
2023/04/19 02:59:42;;;;;;;;;;;;;;;18.77;55.09;98629.50;2080966;28;19982;-51
2023/04/19 03:00:44;;;;;;;;;;;;;;;18.75;54.59;98638.59;2080113;28;19928;-46
2023/04/19 03:01:44;;;;;;;;;;;;;;;18.75;54.97;98629.72;2078616;28;19990;-54
2023/04/19 03:02:45;;;;;;;;;;;;;;;18.74;54.79;98631.56;2079626;28;20325;-52
2023/04/19 03:03:46;;;;;;;;;;;;;;;18.75;54.97;98632.41;2082568;28;20934;-46
2023/04/19 03:04:47;;;;;;;;;;;;;;;18.73;54.97;98634.44;2080278;28;19932;-52
2023/04/19 03:05:48;;;;;;;;;;;;;;;18.74;54.71;98630.72;2080057;28;21103;-48
2023/04/19 03:06:51;;;;;;;;;;;;;;;18.75;54.84;98635.09;2080139;28;19978;-47
2023/04/19 03:07:51;;;;;;;;;;;;;;;18.75;54.68;98627.84;2078479;28;20944;-54
2023/04/19 03:08:52;;;;;;;;;;;;;;;18.75;54.94;98629.72;2079172;28;19933;-46
2023/04/19 03:09:54;;;;;;;;;;;;;;;18.75;54.59;98627.03;2076379;28;19933;-54
2023/04/19 03:10:56;;;;;;;;;;;;;;;18.73;55.01;98624.50;2083972;28;20008;-49
2023/04/19 03:11:56;;;;;;;;;;;;;;;18.75;54.90;98632.41;2078481;28;20059;-52
2023/04/19 03:12:58;;;;;;;;;;;;;;;18.74;54.74;98630.72;2078618;28;20007;-53
2023/04/19 03:13:58;;;;;;;;;;;;;;;18.76;55.00;98626.00;2076920;28;19929;-51
2023/04/19 03:15:00;;;;;;;;;;;;;;;18.75;55.12;98627.03;2079193;28;19974;-53
2023/04/19 03:16:00;;;;;;;;;;;;;;;18.76;54.97;98634.06;2078970;28;19965;-50
2023/04/19 03:17:02;;;;;;;;;;;;;;;18.75;54.80;98632.41;2077607;28;20268;-46
2023/04/19 03:18:02;;;;;;;;;;;;;;;18.74;54.82;98625.34;2076442;28;20005;-53
2023/04/19 03:19:04;;;;;;;;;;;;;;;18.75;54.63;98632.41;2083198;28;19986;-52
2023/04/19 03:20:09;;;;;;;;;;;;;;;18.74;54.53;98630.72;2077251;28;20398;-51
2023/04/19 03:21:11;;;;;;;;;;;;;;;18.73;55.07;98627.19;2078979;28;21818;-53
2023/04/19 03:22:11;;;;;;;;;;;;;;;18.75;54.75;98632.41;2077662;28;19972;-52
2023/04/19 03:23:13;;;;;;;;;;;;;;;18.73;54.95;98631.75;2075644;28;20299;-47
2023/04/19 03:24:13;;;;;;;;;;;;;;;18.74;54.33;98630.72;2079016;28;20440;-51
2023/04/19 03:25:16;;;;;;;;;;;;;;;18.74;54.75;98631.56;2077821;28;19933;-52
2023/04/19 03:26:16;;;;;;;;;;;;;;;18.75;55.04;98630.53;2076595;28;19924;-56
2023/04/19 03:27:18;;;;;;;;;;;;;;;18.73;55.02;98631.75;2082646;28;19928;-48
2023/04/19 03:28:19;;;;;;;;;;;;;;;18.73;54.71;98631.75;2081218;28;19962;-54
2023/04/19 03:29:20;;;;;;;;;;;;;;;18.72;54.54;98636.28;2078173;28;19933;-53
2023/04/19 03:30:21;;;;;;;;;;;;;;;18.74;54.54;98631.56;2081081;28;20019;-48
2023/04/19 03:31:22;;;;;;;;;;;;;;;18.75;54.40;98638.59;2079895;28;19983;-50
2023/04/19 03:32:22;;;;;;;;;;;;;;;18.77;54.74;98635.69;2077571;28;20547;-50
2023/04/19 03:33:24;;;;;;;;;;;;;;;18.79;54.56;98633.63;2077504;28;19944;-53
2023/04/19 03:34:24;;;;;;;;;;;;;;;18.79;54.17;98633.63;2083143;28;20349;-53
2023/04/19 03:35:28;;;;;;;;;;;;;;;18.83;54.09;98631.34;2078042;28;19936;-51
2023/04/19 03:36:29;;;;;;;;;;;;;;;18.86;54.04;98628.25;2076758;28;20307;-52
2023/04/19 03:37:30;;;;;;;;;;;;;;;18.89;54.36;98627.88;2078374;28;19932;-53
2023/04/19 03:38:31;;;;;;;;;;;;;;;18.93;53.96;98635.31;2079379;28;20052;-49
2023/04/19 03:39:32;;;;;;;;;;;;;;;18.98;53.63;98624.75;2081171;28;20043;-47
2023/04/19 03:40:36;;;;;;;;;;;;;;;19.02;53.90;98630.53;2078241;28;19933;-52
2023/04/19 03:41:38;;;;;;;;;;;;;;;19.08;53.49;98628.91;2081503;28;19962;-50
2023/04/19 03:42:40;;;;;;;;;;;;;;;19.14;53.61;98630.78;2076630;28;19932;-52
2023/04/19 03:43:40;;;;;;;;;;;;;;;19.18;53.46;98626.63;2077986;28;20446;-46
2023/04/19 03:44:42;;;;;;;;;;;;;;;19.23;53.42;98632.22;2076406;28;19978;-50
2023/04/19 03:45:42;;;;;;;;;;;;;;;19.29;53.10;98627.88;2080153;28;19974;-48
2023/04/19 03:46:45;;;;;;;;;;;;;;;19.36;53.19;98629.53;2084027;28;19932;-48
2023/04/19 03:47:45;;;;;;;;;;;;;;;19.41;52.99;98621.63;2083953;28;19978;-49
2023/04/19 03:48:46;;;;;;;;;;;;;;;19.46;52.84;98621.00;2082464;28;19924;-46
2023/04/19 03:49:47;;;;;;;;;;;;;;;19.49;52.87;98623.28;2083532;28;19936;-52
2023/04/19 03:50:48;;;;;;;;;;;;;;;19.52;52.84;98628.25;2082516;28;19938;-54
2023/04/19 03:51:49;;;;;;;;;;;;;;;19.58;52.66;98622.00;2079186;28;19929;-54
2023/04/19 03:52:50;;;;;;;;;;;;;;;19.58;52.45;98616.63;2086369;28;19974;-51
2023/04/19 03:53:51;;;;;;;;;;;;;;;19.63;52.59;98618.69;2084340;28;19928;-48
2023/04/19 03:54:52;;;;;;;;;;;;;;;19.66;52.54;98623.69;2083713;28;19933;-51
2023/04/19 03:55:54;;;;;;;;;;;;;;;19.67;52.21;98619.97;2076911;27;19939;-50
2023/04/19 03:56:56;;;;;;;;;;;;;;;19.69;52.54;98623.25;2075176;28;19935;-46
2023/04/19 03:57:56;;;;;;;;;;;;;;;19.68;52.32;98618.94;2080683;28;19932;-54
2023/04/19 03:58:57;;;;;;;;;;;;;;;19.71;52.55;98623.88;2079320;28;19977;-52
2023/04/19 03:59:58;;;;;;;;;;;;;;;19.75;52.34;98619.75;2079537;28;20451;-50
2023/04/19 04:01:01;;;;;;;;;;;;;;;19.73;52.10;98618.31;2079750;28;19925;-49
2023/04/19 04:02:02;;;;;;;;;;;;;;;19.75;52.15;98622.44;2077464;28;20442;-53
2023/04/19 04:03:04;;;;;;;;;;;;;;;19.77;52.26;98617.66;2085088;28;20030;-49
2023/04/19 04:04:04;;;;;;;;;;;;;;;19.76;52.39;98624.09;2079014;28;20045;-48
2023/04/19 04:05:06;;;;;;;;;;;;;;;19.74;52.23;98620.78;2082551;28;19974;-51
2023/04/19 04:06:07;;;;;;;;;;;;;;;19.80;52.56;98628.00;2075337;28;19936;-47
2023/04/19 04:07:08;;;;;;;;;;;;;;;19.81;52.40;98626.97;2077663;28;19936;-52
2023/04/19 04:08:08;;;;;;;;;;;;;;;19.83;52.18;98624.88;2077770;28;19924;-51
2023/04/19 04:09:10;;;;;;;;;;;;;;;19.85;52.34;98627.38;2083146;28;19933;-54
2023/04/19 04:10:10;;;;;;;;;;;;;;;19.84;52.45;98633.81;2079416;28;19928;-49
2023/04/19 04:11:13;;;;;;;;;;;;;;;19.87;52.08;98619.91;2084153;28;19979;-47
2023/04/19 04:12:14;;;;;;;;;;;;;;;19.85;52.42;98622.00;2082679;28;19929;-54
2023/04/19 04:13:15;;;;;;;;;;;;;;;19.88;52.36;98626.94;2083365;28;20413;-51
2023/04/19 04:14:16;;;;;;;;;;;;;;;19.86;52.35;98621.78;2085001;28;19925;-48
2023/04/19 04:15:17;;;;;;;;;;;;;;;19.89;52.30;98619.69;2084540;28;19929;-47
2023/04/19 04:16:18;;;;;;;;;;;;;;;19.89;52.32;98627.78;2085271;28;19932;-49
2023/04/19 04:17:19;;;;;;;;;;;;;;;19.90;52.35;98630.25;2084575;28;19924;-49
2023/04/19 04:18:20;;;;;;;;;;;;;;;19.90;52.33;98624.88;2084547;28;19935;-52
2023/04/19 04:19:21;;;;;;;;;;;;;;;19.92;52.37;98621.94;2081994;28;19932;-53
2023/04/19 04:20:22;;;;;;;;;;;;;;;19.93;52.16;98627.13;2081842;28;19932;-48
2023/04/19 04:21:25;;;;;;;;;;;;;;;19.95;51.92;98621.56;2082592;28;20116;-48
2023/04/19 04:22:25;;;;;;;;;;;;;;;19.95;51.94;98627.75;2083502;28;20613;-55
2023/04/19 04:23:27;;;;;;;;;;;;;;;19.98;52.09;98626.50;2077627;28;19959;-51
2023/04/19 04:24:28;;;;;;;;;;;;;;;19.95;51.98;98633.16;2077989;28;19929;-50
2023/04/19 04:25:31;;;;;;;;;;;;;;;19.97;51.97;98633.75;2083947;28;20528;-51
2023/04/19 04:26:38;;;;;;;;;;;;;;;19.96;52.26;98629.41;2085367;28;20428;-51
2023/04/19 04:27:38;;;;;;;;;;;;;;;19.95;52.18;98627.75;2086707;28;20014;-49
2023/04/19 04:28:40;;;;;;;;;;;;;;;19.97;52.09;98632.91;2085336;28;19936;-50
2023/04/19 04:29:40;;;;;;;;;;;;;;;19.99;52.02;98634.34;2084552;28;20046;-48
2023/04/19 04:30:42;;;;;;;;;;;;;;;19.99;52.13;98636.22;2083541;28;20464;-47
2023/04/19 04:31:42;;;;;;;;;;;;;;;19.99;52.02;98631.66;2080974;28;20054;-54
2023/04/19 04:32:45;;;;;;;;;;;;;;;20.00;52.26;98630.66;2076905;28;20422;-47
2023/04/19 04:33:46;;;;;;;;;;;;;;;20.01;52.25;98634.16;2077150;28;20390;-52
2023/04/19 04:34:47;;;;;;;;;;;;;;;19.98;52.20;98630.03;2075039;28;19934;-49
2023/04/19 04:35:48;;;;;;;;;;;;;;;20.01;52.20;98631.47;2079408;28;19950;-54
2023/04/19 04:36:49;;;;;;;;;;;;;;;20.00;51.98;98635.19;2083514;28;19974;-50
2023/04/19 04:37:50;;;;;;;;;;;;;;;20.04;52.11;98639.94;2084739;28;19936;-51
2023/04/19 04:38:51;;;;;;;;;;;;;;;20.02;52.09;98631.25;2087164;28;19936;-51
2023/04/19 04:39:51;;;;;;;;;;;;;;;20.03;51.92;98637.44;2087340;28;19932;-51
2023/04/19 04:40:54;;;;;;;;;;;;;;;20.04;52.27;98636.44;2077290;28;19966;-52
2023/04/19 04:41:56;;;;;;;;;;;;;;;20.02;52.05;98638.50;2083711;28;19950;-49
2023/04/19 04:42:59;;;;;;;;;;;;;;;20.02;52.03;98638.50;2078270;28;19928;-48
2023/04/19 04:44:03;;;;;;;;;;;;;;;20.04;52.21;98639.13;2082111;28;20023;-53
2023/04/19 04:45:05;;;;;;;;;;;;;;;20.03;52.02;98637.44;2082352;28;19934;-54
2023/04/19 04:46:05;;;;;;;;;;;;;;;20.04;51.85;98644.50;2076297;28;19975;-51
2023/04/19 04:47:07;;;;;;;;;;;;;;;20.01;52.14;98634.16;2081952;28;20346;-48
2023/04/19 04:48:08;;;;;;;;;;;;;;;20.04;52.01;98644.50;2076746;28;20367;-49
2023/04/19 04:49:09;;;;;;;;;;;;;;;20.03;52.25;98641.00;2078109;28;19955;-51
2023/04/19 04:50:10;;;;;;;;;;;;;;;20.00;52.19;98640.56;2080153;28;19928;-49
2023/04/19 04:51:11;;;;;;;;;;;;;;;20.04;52.04;98644.50;2079767;28;20363;-54
2023/04/19 04:52:12;;;;;;;;;;;;;;;20.02;52.02;98643.88;2080647;28;19929;-54
2023/04/19 04:53:13;;;;;;;;;;;;;;;20.05;52.02;98646.97;2082757;28;19982;-49
2023/04/19 04:54:14;;;;;;;;;;;;;;;20.03;52.15;98642.84;2082465;28;20019;-46
2023/04/19 04:55:15;;;;;;;;;;;;;;;20.05;51.92;98649.66;2079341;28;19925;-48
2023/04/19 04:56:17;;;;;;;;;;;;;;;20.03;52.01;98640.13;2079368;28;20783;-51
2023/04/19 04:57:18;;;;;;;;;;;;;;;20.03;52.04;98650.91;2076832;28;20375;-49
2023/04/19 04:58:20;;;;;;;;;;;;;;;20.05;52.02;98651.53;2077363;28;19932;-53
2023/04/19 04:59:20;;;;;;;;;;;;;;;20.04;51.87;98647.19;2079137;28;20267;-50
2023/04/19 05:00:22;;;;;;;;;;;;;;;20.03;51.92;98651.75;2077298;28;19975;-50
2023/04/19 05:01:22;;;;;;;;;;;;;;;20.03;52.16;98656.28;2078806;28;19998;-50
2023/04/19 05:02:24;;;;;;;;;;;;;;;20.03;52.24;98658.97;2081056;28;20336;-53
2023/04/19 05:03:25;;;;;;;;;;;;;;;20.03;52.21;98658.97;2076171;28;19940;-47
2023/04/19 05:04:27;;;;;;;;;;;;;;;20.06;52.18;98658.59;2078435;28;20034;-49
2023/04/19 05:05:27;;;;;;;;;;;;;;;20.05;51.85;98659.59;2077115;28;19967;-51
2023/04/19 05:06:28;;;;;;;;;;;;;;;20.04;52.35;98652.59;2078228;28;19984;-50
2023/04/19 05:07:29;;;;;;;;;;;;;;;20.03;52.32;98658.97;2083961;28;20001;-51
2023/04/19 05:08:30;;;;;;;;;;;;;;;20.03;52.17;98665.22;2080069;28;19978;-53
2023/04/19 05:09:31;;;;;;;;;;;;;;;20.03;52.26;98662.53;2078224;28;19932;-47
2023/04/19 05:10:32;;;;;;;;;;;;;;;20.02;51.97;98650.09;2079455;28;19936;-54
2023/04/19 05:11:33;;;;;;;;;;;;;;;20.03;51.95;98656.28;2080684;28;19982;-50
2023/04/19 05:12:36;;;;;;;;;;;;;;;20.05;52.31;98654.22;2074915;28;19940;-48
2023/04/19 05:13:36;;;;;;;;;;;;;;;20.03;52.33;98651.75;2076779;28;20979;-46
2023/04/19 05:14:38;;;;;;;;;;;;;;;20.03;52.09;98662.53;2077020;28;21026;-49
2023/04/19 05:15:38;;;;;;;;;;;;;;;20.02;51.98;98657.34;2078595;28;20558;-49
2023/04/19 05:16:40;;;;;;;;;;;;;;;20.00;51.88;98662.09;2078479;28;20005;-48
2023/04/19 05:17:41;;;;;;;;;;;;;;;20.03;52.17;98661.69;2079447;28;20456;-47
2023/04/19 05:18:43;;;;;;;;;;;;;;;20.02;52.28;98665.41;2079073;28;20632;-48